sensor_id;sensor_type;location;lat;lon;timestamp;pressure;altitude;pressure_sealevel;temperature;humidity
48555;BME280;34336;48.270;16.716;2023-02-15T00:02:00;78826.34;;;18.16;82.17
48555;BME280;34336;48.270;16.716;2023-02-15T00:04:27;78820.56;;;18.16;81.85
48555;BME280;34336;48.270;16.716;2023-02-15T00:07:14;78822.47;;;18.16;81.97
48555;BME280;34336;48.270;16.716;2023-02-15T00:09:42;78822.47;;;18.16;81.78
48555;BME280;34336;48.270;16.716;2023-02-15T00:12:09;78835.97;;;18.16;81.86
48555;BME280;34336;48.270;16.716;2023-02-15T00:14:36;78837.91;;;18.16;81.86
48555;BME280;34336;48.270;16.716;2023-02-15T00:17:03;78841.78;;;18.16;82.28
48555;BME280;34336;48.270;16.716;2023-02-15T00:19:30;78834.06;;;18.16;82.62
48555;BME280;34336;48.270;16.716;2023-02-15T00:21:57;78845.63;;;18.16;82.58
48555;BME280;34336;48.270;16.716;2023-02-15T00:24:24;78849.47;;;18.16;83.09
48555;BME280;34336;48.270;16.716;2023-02-15T00:26:51;78857.19;;;18.16;83.37
48555;BME280;34336;48.270;16.716;2023-02-15T00:29:18;78859.13;;;18.16;83.46
48555;BME280;34336;48.270;16.716;2023-02-15T00:31:45;78864.91;;;18.16;83.77
48555;BME280;34336;48.270;16.716;2023-02-15T00:34:13;78861.06;;;18.16;84.30
48555;BME280;34336;48.270;16.716;2023-02-15T00:36:41;78872.63;;;18.16;84.44
48555;BME280;34336;48.270;16.716;2023-02-15T00:39:08;78868.75;;;18.16;84.66
48555;BME280;34336;48.270;16.716;2023-02-15T00:41:36;78878.41;;;18.16;85.15
48555;BME280;34336;48.270;16.716;2023-02-15T00:44:03;78880.34;;;18.16;85.28
48555;BME280;34336;48.270;16.716;2023-02-15T00:46:31;78889.97;;;18.16;84.63
48555;BME280;34336;48.270;16.716;2023-02-15T00:48:58;78880.34;;;18.16;83.65
48555;BME280;34336;48.270;16.716;2023-02-15T00:51:25;78888.03;;;18.16;84.18
48555;BME280;34336;48.270;16.716;2023-02-15T00:53:52;78889.97;;;18.16;84.87
48555;BME280;34336;48.270;16.716;2023-02-15T00:56:19;78888.03;;;18.16;84.53
48555;BME280;34336;48.270;16.716;2023-02-15T00:58:46;78893.84;;;18.16;82.84
48555;BME280;34336;48.270;16.716;2023-02-15T01:01:17;78915.03;;;18.16;82.67
48555;BME280;34336;48.270;16.716;2023-02-15T01:03:45;78918.91;;;18.16;84.03
48555;BME280;34336;48.270;16.716;2023-02-15T01:06:14;78915.03;;;18.16;84.56
48555;BME280;34336;48.270;16.716;2023-02-15T01:08:43;78903.47;;;18.16;85.29
48555;BME280;34336;48.270;16.716;2023-02-15T01:11:16;78907.31;;;18.16;84.76
48555;BME280;34336;48.270;16.716;2023-02-15T01:13:51;78911.19;;;18.16;85.15
48555;BME280;34336;48.270;16.716;2023-02-15T01:16:18;78907.31;;;18.16;85.39
48555;BME280;34336;48.270;16.716;2023-02-15T01:18:45;78903.47;;;18.16;85.82
48555;BME280;34336;48.270;16.716;2023-02-15T01:21:16;78891.91;;;18.16;85.91
48555;BME280;34336;48.270;16.716;2023-02-15T01:23:44;78891.91;;;18.16;86.17
48555;BME280;34336;48.270;16.716;2023-02-15T01:26:12;78913.13;;;18.16;86.05
48555;BME280;34336;48.270;16.716;2023-02-15T01:28:39;78918.91;;;18.16;86.30
48555;BME280;34336;48.270;16.716;2023-02-15T01:31:14;78926.63;;;18.16;85.45
48555;BME280;34336;48.270;16.716;2023-02-15T01:33:44;78949.75;;;18.16;85.37
48555;BME280;34336;48.270;16.716;2023-02-15T01:36:11;78972.91;;;18.16;86.40
48555;BME280;34336;48.270;16.716;2023-02-15T01:38:37;78976.75;;;18.16;87.49
48555;BME280;34336;48.270;16.716;2023-02-15T01:41:06;78982.53;;;18.16;87.43
48555;BME280;34336;48.270;16.716;2023-02-15T01:43:56;78980.59;;;18.16;88.36
48555;BME280;34336;48.270;16.716;2023-02-15T01:46:38;78976.75;;;18.16;89.52
48555;BME280;34336;48.270;16.716;2023-02-15T01:49:12;78974.81;;;18.16;89.65
48555;BME280;34336;48.270;16.716;2023-02-15T01:51:42;78972.91;;;18.16;90.25
48555;BME280;34336;48.270;16.716;2023-02-15T01:54:17;78972.91;;;18.16;90.21
48555;BME280;34336;48.270;16.716;2023-02-15T01:56:47;78974.81;;;18.16;89.44
48555;BME280;34336;48.270;16.716;2023-02-15T01:59:17;78969.03;;;18.16;88.90
48555;BME280;34336;48.270;16.716;2023-02-15T02:01:48;78972.91;;;18.16;88.83
48555;BME280;34336;48.270;16.716;2023-02-15T02:06:59;78976.75;;;18.16;89.40
48555;BME280;34336;48.270;16.716;2023-02-15T02:09:26;78970.97;;;18.16;90.18
48555;BME280;34336;48.270;16.716;2023-02-15T02:11:53;78980.59;;;18.16;90.28
48555;BME280;34336;48.270;16.716;2023-02-15T02:14:21;78976.75;;;18.16;90.22
48555;BME280;34336;48.270;16.716;2023-02-15T02:22:28;78982.53;;;18.16;90.53
48555;BME280;34336;48.270;16.716;2023-02-15T02:27:50;78976.75;;;18.16;90.84
48555;BME280;34336;48.270;16.716;2023-02-15T02:33:20;78980.59;;;18.16;90.93
48555;BME280;34336;48.270;16.716;2023-02-15T02:39:02;78969.03;;;18.16;91.89
48555;BME280;34336;48.270;16.716;2023-02-15T02:46:47;78978.69;;;18.16;91.26
48555;BME280;34336;48.270;16.716;2023-02-15T02:49:16;78980.59;;;18.16;91.08
48555;BME280;34336;48.270;16.716;2023-02-15T02:51:42;78988.31;;;18.16;91.19
48555;BME280;34336;48.270;16.716;2023-02-15T02:54:09;78988.31;;;18.16;91.33
48555;BME280;34336;48.270;16.716;2023-02-15T02:56:46;78984.47;;;18.16;91.37
48555;BME280;34336;48.270;16.716;2023-02-15T02:59:30;78980.59;;;18.16;91.49
48555;BME280;34336;48.270;16.716;2023-02-15T03:02:08;78980.59;;;18.16;92.47
48555;BME280;34336;48.270;16.716;2023-02-15T03:04:45;78984.47;;;18.16;92.22
48555;BME280;34336;48.270;16.716;2023-02-15T03:07:19;78988.31;;;18.16;92.71
48555;BME280;34336;48.270;16.716;2023-02-15T03:09:51;78986.38;;;18.16;93.13
48555;BME280;34336;48.270;16.716;2023-02-15T03:12:27;78988.31;;;18.16;92.53
48555;BME280;34336;48.270;16.716;2023-02-15T03:15:03;78988.31;;;18.16;92.40
48555;BME280;34336;48.270;16.716;2023-02-15T03:17:32;78984.47;;;18.16;92.29
48555;BME280;34336;48.270;16.716;2023-02-15T03:20:07;78988.31;;;18.16;92.66
48555;BME280;34336;48.270;16.716;2023-02-15T03:22:42;78986.38;;;18.16;92.52
48555;BME280;34336;48.270;16.716;2023-02-15T03:25:19;78980.59;;;18.16;92.72
48555;BME280;34336;48.270;16.716;2023-02-15T03:28:04;78984.47;;;18.16;93.48
48555;BME280;34336;48.270;16.716;2023-02-15T03:30:34;78974.81;;;18.16;92.88
48555;BME280;34336;48.270;16.716;2023-02-15T03:33:02;78976.75;;;18.16;93.29
48555;BME280;34336;48.270;16.716;2023-02-15T03:35:41;78969.03;;;18.16;93.64
48555;BME280;34336;48.270;16.716;2023-02-15T03:38:09;78972.91;;;18.16;93.19
48555;BME280;34336;48.270;16.716;2023-02-15T03:40:41;78972.91;;;18.16;93.18
48555;BME280;34336;48.270;16.716;2023-02-15T03:46:31;78980.59;;;18.16;93.56
48555;BME280;34336;48.270;16.716;2023-02-15T03:49:08;78986.38;;;18.16;92.82
48555;BME280;34336;48.270;16.716;2023-02-15T03:51:39;78988.31;;;18.16;93.29
48555;BME280;34336;48.270;16.716;2023-02-15T03:54:16;78988.31;;;18.16;93.33
48555;BME280;34336;48.270;16.716;2023-02-15T03:57:07;78984.47;;;18.16;93.64
48555;BME280;34336;48.270;16.716;2023-02-15T03:59:54;78986.38;;;18.16;94.76
48555;BME280;34336;48.270;16.716;2023-02-15T04:02:56;78984.47;;;18.16;94.48
48555;BME280;34336;48.270;16.716;2023-02-15T04:05:27;78980.59;;;18.16;94.49
48555;BME280;34336;48.270;16.716;2023-02-15T04:07:53;78988.31;;;18.16;94.79
48555;BME280;34336;48.270;16.716;2023-02-15T04:10:20;78999.88;;;18.16;94.41
48555;BME280;34336;48.270;16.716;2023-02-15T04:13:05;78992.19;;;18.16;94.78
48555;BME280;34336;48.270;16.716;2023-02-15T04:15:31;78996.03;;;18.16;94.44
48555;BME280;34336;48.270;16.716;2023-02-15T04:18:16;78990.25;;;18.16;95.04
48555;BME280;34336;48.270;16.716;2023-02-15T04:20:44;78984.47;;;18.16;95.46
48555;BME280;34336;48.270;16.716;2023-02-15T04:23:30;78988.31;;;18.16;95.25
48555;BME280;34336;48.270;16.716;2023-02-15T04:26:15;78984.47;;;18.16;94.98
48555;BME280;34336;48.270;16.716;2023-02-15T04:28:42;78978.69;;;18.16;95.67
48555;BME280;34336;48.270;16.716;2023-02-15T04:31:08;78963.25;;;18.16;95.94
48555;BME280;34336;48.270;16.716;2023-02-15T04:33:35;78955.53;;;18.16;95.64
48555;BME280;34336;48.270;16.716;2023-02-15T04:36:03;78945.91;;;18.16;95.80
48555;BME280;34336;48.270;16.716;2023-02-15T04:38:30;78947.81;;;18.16;95.83
48555;BME280;34336;48.270;16.716;2023-02-15T04:40:57;78945.91;;;18.16;95.36
48555;BME280;34336;48.270;16.716;2023-02-15T04:43:23;78942.03;;;18.16;95.23
48555;BME280;34336;48.270;16.716;2023-02-15T04:45:50;78940.09;;;18.16;95.48
48555;BME280;34336;48.270;16.716;2023-02-15T04:48:17;78945.91;;;18.16;95.61
48555;BME280;34336;48.270;16.716;2023-02-15T04:50:44;78945.91;;;18.16;95.13
48555;BME280;34336;48.270;16.716;2023-02-15T04:53:11;78943.97;;;18.16;95.65
48555;BME280;34336;48.270;16.716;2023-02-15T04:55:37;78942.03;;;18.16;96.43
48555;BME280;34336;48.270;16.716;2023-02-15T04:58:04;78942.03;;;18.16;96.15
48555;BME280;34336;48.270;16.716;2023-02-15T05:00:31;78932.41;;;18.16;96.63
48555;BME280;34336;48.270;16.716;2023-02-15T05:02:58;78938.19;;;18.16;96.31
48555;BME280;34336;48.270;16.716;2023-02-15T05:05:24;78938.19;;;18.16;96.00
48555;BME280;34336;48.270;16.716;2023-02-15T05:07:51;78938.19;;;18.16;96.27
48555;BME280;34336;48.270;16.716;2023-02-15T05:10:17;78932.41;;;18.16;96.32
48555;BME280;34336;48.270;16.716;2023-02-15T05:12:44;78934.31;;;18.16;96.91
48555;BME280;34336;48.270;16.716;2023-02-15T05:15:11;78934.31;;;18.16;96.55
48555;BME280;34336;48.270;16.716;2023-02-15T05:17:38;78930.47;;;18.16;96.19
48555;BME280;34336;48.270;16.716;2023-02-15T05:20:06;78930.47;;;18.16;96.46
48555;BME280;34336;48.270;16.716;2023-02-15T05:22:32;78930.47;;;18.16;95.94
48555;BME280;34336;48.270;16.716;2023-02-15T05:24:59;78934.31;;;18.16;96.04
48555;BME280;34336;48.270;16.716;2023-02-15T05:27:44;78942.03;;;18.16;96.09
48555;BME280;34336;48.270;16.716;2023-02-15T05:30:30;78940.09;;;18.16;96.22
48555;BME280;34336;48.270;16.716;2023-02-15T05:32:57;78934.31;;;18.16;96.45
48555;BME280;34336;48.270;16.716;2023-02-15T05:35:24;78926.63;;;18.16;96.57
48555;BME280;34336;48.270;16.716;2023-02-15T05:37:50;78930.47;;;18.16;96.65
48555;BME280;34336;48.270;16.716;2023-02-15T05:40:17;78930.47;;;18.16;96.78
48555;BME280;34336;48.270;16.716;2023-02-15T05:42:44;78928.53;;;18.16;97.02
48555;BME280;34336;48.270;16.716;2023-02-15T05:45:10;78926.63;;;18.16;97.27
48555;BME280;34336;48.270;16.716;2023-02-15T05:47:37;78924.69;;;18.16;96.71
48555;BME280;34336;48.270;16.716;2023-02-15T05:50:04;78930.47;;;18.16;96.68
48555;BME280;34336;48.270;16.716;2023-02-15T05:52:31;78932.41;;;18.16;97.28
48555;BME280;34336;48.270;16.716;2023-02-15T05:54:58;78930.47;;;18.16;97.60
48555;BME280;34336;48.270;16.716;2023-02-15T05:57:26;78938.19;;;18.16;97.74
48555;BME280;34336;48.270;16.716;2023-02-15T05:59:53;78938.19;;;18.16;97.53
48555;BME280;34336;48.270;16.716;2023-02-15T06:02:20;78930.47;;;18.16;97.76
48555;BME280;34336;48.270;16.716;2023-02-15T06:04:47;78936.25;;;18.16;97.69
48555;BME280;34336;48.270;16.716;2023-02-15T06:07:13;78930.47;;;18.16;97.53
48555;BME280;34336;48.270;16.716;2023-02-15T06:09:40;78930.47;;;18.16;98.00
48555;BME280;34336;48.270;16.716;2023-02-15T06:12:07;78926.63;;;18.16;97.95
48555;BME280;34336;48.270;16.716;2023-02-15T06:14:33;78930.47;;;18.16;97.54
48555;BME280;34336;48.270;16.716;2023-02-15T06:17:00;78920.81;;;18.16;97.86
48555;BME280;34336;48.270;16.716;2023-02-15T06:19:26;78920.81;;;18.16;97.87
48555;BME280;34336;48.270;16.716;2023-02-15T06:21:53;78911.19;;;18.16;97.82
48555;BME280;34336;48.270;16.716;2023-02-15T06:24:20;78899.63;;;18.16;97.27
48555;BME280;34336;48.270;16.716;2023-02-15T06:26:46;78893.84;;;18.16;97.38
48555;BME280;34336;48.270;16.716;2023-02-15T06:29:13;78888.03;;;18.16;96.74
48555;BME280;34336;48.270;16.716;2023-02-15T06:31:40;78895.75;;;18.16;95.89
48555;BME280;34336;48.270;16.716;2023-02-15T06:34:07;78893.84;;;18.16;95.49
48555;BME280;34336;48.270;16.716;2023-02-15T06:36:34;78895.75;;;18.16;94.88
48555;BME280;34336;48.270;16.716;2023-02-15T06:39:01;78888.03;;;18.16;94.51
48555;BME280;34336;48.270;16.716;2023-02-15T06:41:29;78891.91;;;18.16;94.45
48555;BME280;34336;48.270;16.716;2023-02-15T06:43:56;78880.34;;;18.16;94.80
48555;BME280;34336;48.270;16.716;2023-02-15T06:46:23;78876.47;;;18.16;94.76
48555;BME280;34336;48.270;16.716;2023-02-15T06:48:49;78872.63;;;18.16;94.22
48555;BME280;34336;48.270;16.716;2023-02-15T06:51:16;78861.06;;;18.16;94.20
48555;BME280;34336;48.270;16.716;2023-02-15T06:53:43;78864.91;;;18.16;93.85
48555;BME280;34336;48.270;16.716;2023-02-15T06:56:10;78857.19;;;18.16;94.16
48555;BME280;34336;48.270;16.716;2023-02-15T06:58:41;78853.34;;;18.16;93.91
48555;BME280;34336;48.270;16.716;2023-02-15T07:01:09;78845.63;;;18.16;93.30
48555;BME280;34336;48.270;16.716;2023-02-15T07:03:36;78845.63;;;18.16;93.10
48555;BME280;34336;48.270;16.716;2023-02-15T07:06:03;78837.91;;;18.16;93.23
48555;BME280;34336;48.270;16.716;2023-02-15T07:08:38;78841.78;;;18.16;93.17
48555;BME280;34336;48.270;16.716;2023-02-15T07:11:06;78834.06;;;18.16;93.06
48555;BME280;34336;48.270;16.716;2023-02-15T07:13:52;78822.47;;;18.16;93.24
48555;BME280;34336;48.270;16.716;2023-02-15T07:16:19;78853.34;;;18.16;93.38
48555;BME280;34336;48.270;16.716;2023-02-15T07:18:46;78845.63;;;18.16;93.38
48555;BME280;34336;48.270;16.716;2023-02-15T07:21:13;78849.47;;;18.16;93.50
48555;BME280;34336;48.270;16.716;2023-02-15T07:23:40;78845.63;;;18.16;93.09
48555;BME280;34336;48.270;16.716;2023-02-15T07:26:07;78839.84;;;18.16;93.92
48555;BME280;34336;48.270;16.716;2023-02-15T07:28:34;78845.63;;;18.16;93.91
48555;BME280;34336;48.270;16.716;2023-02-15T07:31:02;78849.47;;;18.16;94.66
48555;BME280;34336;48.270;16.716;2023-02-15T07:33:33;78847.56;;;18.16;93.97
48555;BME280;34336;48.270;16.716;2023-02-15T07:36:04;78849.47;;;18.16;95.18
48555;BME280;34336;48.270;16.716;2023-02-15T07:38:33;78837.91;;;18.16;95.36
48555;BME280;34336;48.270;16.716;2023-02-15T07:41:03;78824.41;;;18.16;95.60
48555;BME280;34336;48.270;16.716;2023-02-15T07:43:32;78810.91;;;18.16;94.44
48555;BME280;34336;48.270;16.716;2023-02-15T07:46:00;78803.19;;;18.16;94.87
48555;BME280;34336;48.270;16.716;2023-02-15T07:48:28;78799.34;;;18.16;94.83
48555;BME280;34336;48.270;16.716;2023-02-15T07:50:58;78795.50;;;18.16;94.59
48555;BME280;34336;48.270;16.716;2023-02-15T07:53:26;78778.13;;;18.16;94.91
48555;BME280;34336;48.270;16.716;2023-02-15T07:55:52;78772.34;;;18.16;93.85
48555;BME280;34336;48.270;16.716;2023-02-15T07:58:19;78760.78;;;18.16;94.01
48555;BME280;34336;48.270;16.716;2023-02-15T08:00:46;78745.34;;;18.16;93.72
48555;BME280;34336;48.270;16.716;2023-02-15T08:03:27;78749.22;;;18.16;92.63
48555;BME280;34336;48.270;16.716;2023-02-15T08:05:57;78731.84;;;18.16;92.53
48555;BME280;34336;48.270;16.716;2023-02-15T08:08:26;78731.84;;;18.16;90.95
48555;BME280;34336;48.270;16.716;2023-02-15T08:13:53;78695.22;;;18.16;89.50
48555;BME280;34336;48.270;16.716;2023-02-15T08:19:19;78677.88;;;18.16;87.62
48555;BME280;34336;48.270;16.716;2023-02-15T08:22:01;78675.94;;;18.16;87.15
48555;BME280;34336;48.270;16.716;2023-02-15T08:24:34;78668.22;;;18.16;86.42
48555;BME280;34336;48.270;16.716;2023-02-15T08:27:00;78672.09;;;18.16;87.04
48555;BME280;34336;48.270;16.716;2023-02-15T08:29:32;78672.09;;;18.16;85.37
48555;BME280;34336;48.270;16.716;2023-02-15T08:32:05;78656.66;;;18.16;84.32
48555;BME280;34336;48.270;16.716;2023-02-15T08:34:34;78637.38;;;18.16;83.21
48555;BME280;34336;48.270;16.716;2023-02-15T08:37:01;78631.59;;;18.16;82.77
48555;BME280;34336;48.270;16.716;2023-02-15T08:39:27;78641.22;;;18.16;82.56
48555;BME280;34336;48.270;16.716;2023-02-15T08:41:55;78637.38;;;18.16;82.99
48555;BME280;34336;48.270;16.716;2023-02-15T08:44:22;78650.88;;;18.16;83.91
48555;BME280;34336;48.270;16.716;2023-02-15T08:46:49;78660.50;;;18.16;84.82
48555;BME280;34336;48.270;16.716;2023-02-15T08:49:21;78641.22;;;18.16;84.71
48555;BME280;34336;48.270;16.716;2023-02-15T08:51:48;78637.38;;;18.16;84.84
48555;BME280;34336;48.270;16.716;2023-02-15T08:54:18;78606.53;;;18.16;85.58
48555;BME280;34336;48.270;16.716;2023-02-15T08:56:46;78589.16;;;18.16;84.03
48555;BME280;34336;48.270;16.716;2023-02-15T08:59:19;78562.19;;;18.16;83.96
48555;BME280;34336;48.270;16.716;2023-02-15T09:01:47;78552.53;;;18.16;82.34
48555;BME280;34336;48.270;16.716;2023-02-15T09:04:14;78566.03;;;18.16;81.49
48555;BME280;34336;48.270;16.716;2023-02-15T09:06:43;78564.09;;;18.16;81.04
48555;BME280;34336;48.270;16.716;2023-02-15T09:09:14;78550.59;;;18.16;80.36
48555;BME280;34336;48.270;16.716;2023-02-15T09:11:43;78519.75;;;18.16;80.17
48555;BME280;34336;48.270;16.716;2023-02-15T09:14:14;78508.19;;;18.16;79.72
48555;BME280;34336;48.270;16.716;2023-02-15T09:16:43;78494.69;;;18.16;79.17
48555;BME280;34336;48.270;16.716;2023-02-15T09:19:16;78508.19;;;18.16;77.73
48555;BME280;34336;48.270;16.716;2023-02-15T09:21:43;78502.41;;;18.16;77.21
48555;BME280;34336;48.270;16.716;2023-02-15T09:24:12;78492.75;;;18.16;77.42
48555;BME280;34336;48.270;16.716;2023-02-15T09:26:41;78492.75;;;18.16;76.52
48555;BME280;34336;48.270;16.716;2023-02-15T09:29:10;78483.13;;;18.16;76.44
48555;BME280;34336;48.270;16.716;2023-02-15T09:31:40;78498.53;;;18.16;76.45
48555;BME280;34336;48.270;16.716;2023-02-15T09:34:07;78494.69;;;18.16;76.32
48555;BME280;34336;48.270;16.716;2023-02-15T09:36:36;78496.63;;;18.16;76.97
48555;BME280;34336;48.270;16.716;2023-02-15T09:41:54;78459.97;;;18.16;74.88
48555;BME280;34336;48.270;16.716;2023-02-15T09:47:08;78436.84;;;18.16;73.97
48555;BME280;34336;48.270;16.716;2023-02-15T10:01:18;78380.94;;;18.16;74.48
48555;BME280;34336;48.270;16.716;2023-02-15T10:10:14;78371.28;;;18.16;71.36
48555;BME280;34336;48.270;16.716;2023-02-15T10:13:16;78344.31;;;18.16;69.99
48555;BME280;34336;48.270;16.716;2023-02-15T10:15:57;78361.66;;;18.16;69.78
48555;BME280;34336;48.270;16.716;2023-02-15T10:18:55;78340.44;;;18.16;69.38
48555;BME280;34336;48.270;16.716;2023-02-15T10:21:40;78323.09;;;18.16;68.37
48555;BME280;34336;48.270;16.716;2023-02-15T10:26:47;78398.28;;;18.16;69.37
48555;BME280;34336;48.270;16.716;2023-02-15T10:29:29;78382.88;;;18.16;69.15
48555;BME280;34336;48.270;16.716;2023-02-15T10:32:25;78390.56;;;18.16;70.26
48555;BME280;34336;48.270;16.716;2023-02-15T10:35:20;78402.16;;;18.16;70.97
48555;BME280;34336;48.270;16.716;2023-02-15T10:40:51;78402.16;;;18.16;70.10
48555;BME280;34336;48.270;16.716;2023-02-15T10:43:45;78398.28;;;18.16;70.98
48555;BME280;34336;48.270;16.716;2023-02-15T10:49:15;78415.63;;;18.16;70.94
48555;BME280;34336;48.270;16.716;2023-02-15T10:51:56;78363.59;;;18.16;70.07
48555;BME280;34336;48.270;16.716;2023-02-15T10:55:06;78363.59;;;18.16;68.29
48555;BME280;34336;48.270;16.716;2023-02-15T11:00:00;78359.72;;;18.16;69.16
48555;BME280;34336;48.270;16.716;2023-02-15T11:02:46;78352.00;;;18.16;68.37
48555;BME280;34336;48.270;16.716;2023-02-15T11:07:55;78311.53;;;18.16;67.63
48555;BME280;34336;48.270;16.716;2023-02-15T11:10:36;78336.59;;;18.16;67.96
48555;BME280;34336;48.270;16.716;2023-02-15T11:13:14;78321.16;;;18.16;68.08
48555;BME280;34336;48.270;16.716;2023-02-15T11:15:45;78286.47;;;18.16;68.34
48555;BME280;34336;48.270;16.716;2023-02-15T11:20:54;78222.84;;;18.16;66.78
48555;BME280;34336;48.270;16.716;2023-02-15T11:23:24;78190.06;;;18.16;66.18
48555;BME280;34336;48.270;16.716;2023-02-15T11:25:59;78215.13;;;18.16;65.30
48555;BME280;34336;48.270;16.716;2023-02-15T11:28:32;78201.63;;;18.16;66.12
48555;BME280;34336;48.270;16.716;2023-02-15T11:31:13;78267.19;;;18.16;67.31
48555;BME280;34336;48.270;16.716;2023-02-15T11:33:46;78301.88;;;18.16;68.18
48555;BME280;34336;48.270;16.716;2023-02-15T11:36:18;78321.16;;;18.16;68.48
48555;BME280;34336;48.270;16.716;2023-02-15T11:38:46;78296.09;;;18.16;69.69
48555;BME280;34336;48.270;16.716;2023-02-15T11:41:21;78272.97;;;18.16;68.82
48555;BME280;34336;48.270;16.716;2023-02-15T11:46:27;78311.53;;;18.16;68.83
48555;BME280;34336;48.270;16.716;2023-02-15T11:48:55;78305.75;;;18.16;70.08
48555;BME280;34336;48.270;16.716;2023-02-15T11:51:22;78294.19;;;18.16;69.40
48555;BME280;34336;48.270;16.716;2023-02-15T11:53:50;78269.09;;;18.16;69.70
48555;BME280;34336;48.270;16.716;2023-02-15T11:56:20;78242.13;;;18.16;67.65
48555;BME280;34336;48.270;16.716;2023-02-15T11:59:12;78240.19;;;18.16;66.57
48555;BME280;34336;48.270;16.716;2023-02-15T12:01:44;78261.41;;;18.16;68.47
48555;BME280;34336;48.270;16.716;2023-02-15T12:06:55;78232.47;;;18.16;67.55
48555;BME280;34336;48.270;16.716;2023-02-15T12:15:01;78276.81;;;18.16;66.60
48555;BME280;34336;48.270;16.716;2023-02-15T12:17:32;78228.63;;;18.16;66.98
48555;BME280;34336;48.270;16.716;2023-02-15T12:20:28;78236.34;;;18.16;67.67
48555;BME280;34336;48.270;16.716;2023-02-15T12:23:12;78215.13;;;18.16;66.60
48555;BME280;34336;48.270;16.716;2023-02-15T12:28:44;78209.34;;;18.16;68.49
48555;BME280;34336;48.270;16.716;2023-02-15T12:31:26;78193.91;;;18.16;66.56
48555;BME280;34336;48.270;16.716;2023-02-15T12:33:56;78163.06;;;18.16;66.83
48555;BME280;34336;48.270;16.716;2023-02-15T12:36:29;78143.78;;;18.16;65.54
48555;BME280;34336;48.270;16.716;2023-02-15T12:39:03;78136.09;;;18.16;66.01
48555;BME280;34336;48.270;16.716;2023-02-15T12:41:31;78155.34;;;18.16;65.60
48555;BME280;34336;48.270;16.716;2023-02-15T12:44:16;78151.50;;;18.16;65.73
48555;BME280;34336;48.270;16.716;2023-02-15T12:49:36;78174.63;;;18.16;66.38
48555;BME280;34336;48.270;16.716;2023-02-15T12:54:39;78201.63;;;18.16;67.65
48555;BME280;34336;48.270;16.716;2023-02-15T13:00:02;78213.19;;;18.16;68.79
48555;BME280;34336;48.270;16.716;2023-02-15T13:08:04;78153.44;;;18.16;67.73
48555;BME280;34336;48.270;16.716;2023-02-15T13:10:37;78143.78;;;18.16;68.15
48555;BME280;34336;48.270;16.716;2023-02-15T13:13:10;78139.94;;;18.16;66.09
48555;BME280;34336;48.270;16.716;2023-02-15T13:15:44;78132.22;;;18.16;65.96
48555;BME280;34336;48.270;16.716;2023-02-15T13:18:21;78128.38;;;18.16;66.97
48555;BME280;34336;48.270;16.716;2023-02-15T13:20:53;78116.81;;;18.16;66.28
48555;BME280;34336;48.270;16.716;2023-02-15T13:23:25;78111.03;;;18.16;66.60
48555;BME280;34336;48.270;16.716;2023-02-15T13:25:56;78109.09;;;18.16;66.04
48555;BME280;34336;48.270;16.716;2023-02-15T13:28:44;78151.50;;;18.16;67.40
48555;BME280;34336;48.270;16.716;2023-02-15T13:31:14;78182.34;;;18.16;68.62
48555;BME280;34336;48.270;16.716;2023-02-15T13:33:45;78186.22;;;18.16;68.72
48555;BME280;34336;48.270;16.716;2023-02-15T13:38:52;78236.34;;;18.16;69.54
48555;BME280;34336;48.270;16.716;2023-02-15T13:41:40;78236.34;;;18.16;69.66
48555;BME280;34336;48.270;16.716;2023-02-15T13:44:35;78238.25;;;18.16;69.38
48555;BME280;34336;48.270;16.716;2023-02-15T13:47:21;78236.34;;;18.16;70.72
48555;BME280;34336;48.270;16.716;2023-02-15T13:50:00;78242.13;;;18.16;71.74
48555;BME280;34336;48.270;16.716;2023-02-15T13:52:32;78247.91;;;18.16;71.06
48555;BME280;34336;48.270;16.716;2023-02-15T13:55:28;78244.03;;;18.16;70.32
48555;BME280;34336;48.270;16.716;2023-02-15T14:00:52;78247.91;;;18.16;70.40
48555;BME280;34336;48.270;16.716;2023-02-15T14:09:04;78234.41;;;18.16;70.07
48555;BME280;34336;48.270;16.716;2023-02-15T14:14:34;78228.63;;;18.16;69.83
48555;BME280;34336;48.270;16.716;2023-02-15T14:25:55;78220.91;;;18.16;68.85
48555;BME280;34336;48.270;16.716;2023-02-15T14:31:11;78232.47;;;18.16;69.97
48555;BME280;34336;48.270;16.716;2023-02-15T14:33:40;78228.63;;;18.16;69.87
48555;BME280;34336;48.270;16.716;2023-02-15T14:36:15;78242.13;;;18.16;69.90
48555;BME280;34336;48.270;16.716;2023-02-15T14:42:36;78253.69;;;18.16;69.82
48555;BME280;34336;48.270;16.716;2023-02-15T14:48:30;78261.41;;;18.16;70.87
48555;BME280;34336;48.270;16.716;2023-02-15T14:50:58;78284.53;;;18.16;71.57
48555;BME280;34336;48.270;16.716;2023-02-15T14:53:33;78282.59;;;18.16;71.58
48555;BME280;34336;48.270;16.716;2023-02-15T14:58:35;78303.81;;;18.16;73.55
48555;BME280;34336;48.270;16.716;2023-02-15T15:01:10;78309.59;;;18.16;73.73
48555;BME280;34336;48.270;16.716;2023-02-15T15:03:53;78309.59;;;18.16;73.83
48555;BME280;34336;48.270;16.716;2023-02-15T15:06:30;78319.25;;;18.16;74.00
48555;BME280;34336;48.270;16.716;2023-02-15T15:09:22;78321.16;;;18.16;74.02
48555;BME280;34336;48.270;16.716;2023-02-15T15:11:52;78321.16;;;18.16;73.54
48555;BME280;34336;48.270;16.716;2023-02-15T15:17:03;78317.31;;;18.16;74.52
48555;BME280;34336;48.270;16.716;2023-02-15T15:22:23;78321.16;;;18.16;74.62
48555;BME280;34336;48.270;16.716;2023-02-15T15:24:54;78309.59;;;18.16;75.29
48555;BME280;34336;48.270;16.716;2023-02-15T15:27:45;78309.59;;;18.16;75.55
48555;BME280;34336;48.270;16.716;2023-02-15T15:35:33;78299.97;;;18.16;75.42
48555;BME280;34336;48.270;16.716;2023-02-15T15:43:55;78301.88;;;18.16;76.51
48555;BME280;34336;48.270;16.716;2023-02-15T15:49:30;78311.53;;;18.16;77.59